sensor_id;sensor_type;location;lat;lon;timestamp;pressure;altitude;pressure_sealevel;temperature;humidity
3598;BME280;1813;52.016;8.714;2023-07-31T00:01:32;-16261.94;;;-139.71;91.24
3598;BME280;1813;52.016;8.714;2023-07-31T00:04:06;-16261.94;;;-139.71;90.90
3598;BME280;1813;52.016;8.714;2023-07-31T00:06:40;-16261.94;;;-139.71;91.07
3598;BME280;1813;52.016;8.714;2023-07-31T00:09:14;-16261.94;;;-139.71;90.94
3598;BME280;1813;52.016;8.714;2023-07-31T00:11:49;-16261.94;;;-139.71;91.06
3598;BME280;1813;52.016;8.714;2023-07-31T00:14:23;-16261.94;;;-139.71;91.43
3598;BME280;1813;52.016;8.714;2023-07-31T00:16:59;-16261.94;;;-139.71;91.73
3598;BME280;1813;52.016;8.714;2023-07-31T00:19:33;-16261.94;;;-139.71;92.19
3598;BME280;1813;52.016;8.714;2023-07-31T00:22:07;-16261.94;;;-139.71;92.13
3598;BME280;1813;52.016;8.714;2023-07-31T00:24:41;-16261.94;;;-139.71;92.33
3598;BME280;1813;52.016;8.714;2023-07-31T00:27:15;-16261.94;;;-139.71;92.60
3598;BME280;1813;52.016;8.714;2023-07-31T00:29:50;-16261.94;;;-139.71;92.93
3598;BME280;1813;52.016;8.714;2023-07-31T00:32:27;-16261.94;;;-139.71;92.83
3598;BME280;1813;52.016;8.714;2023-07-31T00:35:01;-16261.94;;;-139.71;93.06
3598;BME280;1813;52.016;8.714;2023-07-31T00:37:35;-16261.94;;;-139.71;93.13
3598;BME280;1813;52.016;8.714;2023-07-31T00:40:10;-16261.94;;;-139.71;93.20
3598;BME280;1813;52.016;8.714;2023-07-31T00:42:44;-16261.94;;;-139.71;93.01
3598;BME280;1813;52.016;8.714;2023-07-31T00:45:19;-16261.94;;;-139.71;92.99
3598;BME280;1813;52.016;8.714;2023-07-31T00:47:56;-16261.94;;;-139.71;92.88
3598;BME280;1813;52.016;8.714;2023-07-31T00:50:31;-16261.94;;;-139.71;92.97
3598;BME280;1813;52.016;8.714;2023-07-31T00:53:05;-16261.94;;;-139.71;92.94
3598;BME280;1813;52.016;8.714;2023-07-31T00:55:39;-16261.94;;;-139.71;93.04
3598;BME280;1813;52.016;8.714;2023-07-31T00:58:13;-16261.94;;;-139.71;92.99
3598;BME280;1813;52.016;8.714;2023-07-31T01:00:46;-16261.94;;;-139.71;92.93
3598;BME280;1813;52.016;8.714;2023-07-31T01:03:24;-16261.94;;;-139.71;92.94
3598;BME280;1813;52.016;8.714;2023-07-31T01:06:06;-16261.94;;;-139.71;93.00
3598;BME280;1813;52.016;8.714;2023-07-31T01:08:49;-16261.94;;;-139.71;92.99
3598;BME280;1813;52.016;8.714;2023-07-31T01:11:28;-16261.94;;;-139.71;93.22
3598;BME280;1813;52.016;8.714;2023-07-31T01:14:02;-16261.94;;;-139.71;93.17
3598;BME280;1813;52.016;8.714;2023-07-31T01:16:37;-16261.94;;;-139.71;92.94
3598;BME280;1813;52.016;8.714;2023-07-31T01:19:18;-16261.94;;;-139.71;92.83
3598;BME280;1813;52.016;8.714;2023-07-31T01:22:19;-16261.94;;;-139.71;92.76
3598;BME280;1813;52.016;8.714;2023-07-31T01:25:11;-16261.94;;;-139.71;92.71
3598;BME280;1813;52.016;8.714;2023-07-31T01:27:57;-16261.94;;;-139.71;92.78
3598;BME280;1813;52.016;8.714;2023-07-31T01:30:36;-16261.94;;;-139.71;92.62
3598;BME280;1813;52.016;8.714;2023-07-31T01:33:11;-16261.94;;;-139.71;92.54
3598;BME280;1813;52.016;8.714;2023-07-31T01:35:47;-16261.94;;;-139.71;92.31
3598;BME280;1813;52.016;8.714;2023-07-31T01:38:22;-16261.94;;;-139.71;91.95
3598;BME280;1813;52.016;8.714;2023-07-31T01:40:57;-16261.94;;;-139.71;91.63
3598;BME280;1813;52.016;8.714;2023-07-31T01:43:34;-16261.94;;;-139.71;91.22
3598;BME280;1813;52.016;8.714;2023-07-31T01:46:09;-16261.94;;;-139.71;90.94
3598;BME280;1813;52.016;8.714;2023-07-31T01:48:43;-16261.94;;;-139.71;90.67
3598;BME280;1813;52.016;8.714;2023-07-31T01:51:17;-16261.94;;;-139.71;90.41
3598;BME280;1813;52.016;8.714;2023-07-31T01:53:51;-16261.94;;;-139.71;89.69
3598;BME280;1813;52.016;8.714;2023-07-31T01:56:25;-16261.94;;;-139.71;89.45
3598;BME280;1813;52.016;8.714;2023-07-31T01:59:02;-16261.94;;;-139.71;89.01
3598;BME280;1813;52.016;8.714;2023-07-31T02:01:36;-16261.94;;;-139.71;88.55
3598;BME280;1813;52.016;8.714;2023-07-31T02:04:10;-16261.94;;;-139.71;88.54
3598;BME280;1813;52.016;8.714;2023-07-31T02:06:44;-16261.94;;;-139.71;88.76
3598;BME280;1813;52.016;8.714;2023-07-31T02:09:17;-16261.94;;;-139.71;89.09
3598;BME280;1813;52.016;8.714;2023-07-31T02:11:51;-16261.94;;;-139.71;88.96
3598;BME280;1813;52.016;8.714;2023-07-31T02:14:28;-16261.94;;;-139.71;88.83
3598;BME280;1813;52.016;8.714;2023-07-31T02:17:02;-16261.94;;;-139.71;88.95
3598;BME280;1813;52.016;8.714;2023-07-31T02:19:36;-16261.94;;;-139.71;89.04
3598;BME280;1813;52.016;8.714;2023-07-31T02:22:10;-16261.94;;;-139.71;88.98
3598;BME280;1813;52.016;8.714;2023-07-31T02:24:44;-16261.94;;;-139.71;89.16
3598;BME280;1813;52.016;8.714;2023-07-31T02:27:18;-16261.94;;;-139.71;88.92
3598;BME280;1813;52.016;8.714;2023-07-31T02:29:57;-16261.94;;;-139.71;89.16
3598;BME280;1813;52.016;8.714;2023-07-31T02:32:32;-16261.94;;;-139.71;89.60
3598;BME280;1813;52.016;8.714;2023-07-31T02:35:07;-16261.94;;;-139.71;89.56
3598;BME280;1813;52.016;8.714;2023-07-31T02:37:46;-16261.94;;;-139.71;89.66
3598;BME280;1813;52.016;8.714;2023-07-31T02:40:19;-16261.94;;;-139.71;90.02
3598;BME280;1813;52.016;8.714;2023-07-31T02:42:54;-16261.94;;;-139.71;90.25
3598;BME280;1813;52.016;8.714;2023-07-31T02:45:31;-16261.94;;;-139.71;90.46
3598;BME280;1813;52.016;8.714;2023-07-31T02:48:05;-16261.94;;;-139.71;90.77
3598;BME280;1813;52.016;8.714;2023-07-31T02:50:39;-16261.94;;;-139.71;90.74
3598;BME280;1813;52.016;8.714;2023-07-31T02:53:13;-16261.94;;;-139.71;90.80
3598;BME280;1813;52.016;8.714;2023-07-31T02:55:47;-16261.94;;;-139.71;91.00
3598;BME280;1813;52.016;8.714;2023-07-31T02:58:21;-16261.94;;;-139.71;91.09
3598;BME280;1813;52.016;8.714;2023-07-31T03:00:58;-16261.94;;;-139.71;91.25
3598;BME280;1813;52.016;8.714;2023-07-31T03:03:33;-16261.94;;;-139.71;91.28
3598;BME280;1813;52.016;8.714;2023-07-31T03:06:07;-16261.94;;;-139.71;91.52
3598;BME280;1813;52.016;8.714;2023-07-31T03:08:41;-16261.94;;;-139.71;91.67
3598;BME280;1813;52.016;8.714;2023-07-31T03:11:15;-16261.94;;;-139.71;92.07
3598;BME280;1813;52.016;8.714;2023-07-31T03:13:49;-16261.94;;;-139.71;92.10
3598;BME280;1813;52.016;8.714;2023-07-31T03:16:25;-16261.94;;;-139.71;92.16
3598;BME280;1813;52.016;8.714;2023-07-31T03:18:59;-16261.94;;;-139.71;92.58
3598;BME280;1813;52.016;8.714;2023-07-31T03:21:33;-16261.94;;;-139.71;92.75
3598;BME280;1813;52.016;8.714;2023-07-31T03:24:07;-16261.94;;;-139.71;93.16
3598;BME280;1813;52.016;8.714;2023-07-31T03:26:42;-16261.94;;;-139.71;93.37
3598;BME280;1813;52.016;8.714;2023-07-31T03:29:16;-16261.94;;;-139.71;93.98
3598;BME280;1813;52.016;8.714;2023-07-31T03:31:53;-16261.94;;;-139.71;94.11
3598;BME280;1813;52.016;8.714;2023-07-31T03:34:27;-16261.94;;;-139.71;94.49
3598;BME280;1813;52.016;8.714;2023-07-31T03:37:03;-16261.94;;;-139.71;95.02
3598;BME280;1813;52.016;8.714;2023-07-31T03:39:36;-16261.94;;;-139.71;95.08
3598;BME280;1813;52.016;8.714;2023-07-31T03:42:12;-16261.94;;;-139.71;95.27
3598;BME280;1813;52.016;8.714;2023-07-31T03:44:46;-16261.94;;;-139.71;95.60
3598;BME280;1813;52.016;8.714;2023-07-31T03:47:24;-16261.94;;;-139.71;95.67
3598;BME280;1813;52.016;8.714;2023-07-31T03:49:58;-16261.94;;;-139.71;96.08
3598;BME280;1813;52.016;8.714;2023-07-31T03:52:32;-16261.94;;;-139.71;95.86
3598;BME280;1813;52.016;8.714;2023-07-31T03:55:06;-16261.94;;;-139.71;96.01
3598;BME280;1813;52.016;8.714;2023-07-31T03:57:41;-16261.94;;;-139.71;95.92
3598;BME280;1813;52.016;8.714;2023-07-31T04:00:15;-16261.94;;;-139.71;95.77
3598;BME280;1813;52.016;8.714;2023-07-31T04:02:52;-16261.94;;;-139.71;95.77
3598;BME280;1813;52.016;8.714;2023-07-31T04:05:25;-16261.94;;;-139.71;95.77
3598;BME280;1813;52.016;8.714;2023-07-31T04:07:59;-16261.94;;;-139.71;95.77
3598;BME280;1813;52.016;8.714;2023-07-31T04:10:33;-16261.94;;;-139.71;95.58
3598;BME280;1813;52.016;8.714;2023-07-31T04:13:07;-16261.94;;;-139.71;95.39
3598;BME280;1813;52.016;8.714;2023-07-31T04:15:41;-16261.94;;;-139.71;95.17
3598;BME280;1813;52.016;8.714;2023-07-31T04:18:18;-16261.94;;;-139.71;95.04
3598;BME280;1813;52.016;8.714;2023-07-31T04:20:52;-16261.94;;;-139.71;95.16
3598;BME280;1813;52.016;8.714;2023-07-31T04:23:26;-16261.94;;;-139.71;94.87
3598;BME280;1813;52.016;8.714;2023-07-31T04:26:00;-16261.94;;;-139.71;94.86
3598;BME280;1813;52.016;8.714;2023-07-31T04:28:33;-16261.94;;;-139.71;94.59
3598;BME280;1813;52.016;8.714;2023-07-31T04:31:07;-16261.94;;;-139.71;94.55
3598;BME280;1813;52.016;8.714;2023-07-31T04:33:44;-16261.94;;;-139.71;94.34
3598;BME280;1813;52.016;8.714;2023-07-31T04:36:18;-16261.94;;;-139.71;94.36
3598;BME280;1813;52.016;8.714;2023-07-31T04:38:52;-16261.94;;;-139.71;94.36
3598;BME280;1813;52.016;8.714;2023-07-31T04:41:26;-16261.94;;;-139.71;94.35
3598;BME280;1813;52.016;8.714;2023-07-31T04:44:01;-16261.94;;;-139.71;94.53
3598;BME280;1813;52.016;8.714;2023-07-31T04:46:34;-16261.94;;;-139.71;94.23
3598;BME280;1813;52.016;8.714;2023-07-31T04:49:11;-16261.94;;;-139.71;94.24
3598;BME280;1813;52.016;8.714;2023-07-31T04:51:45;-16261.94;;;-139.71;94.40
3598;BME280;1813;52.016;8.714;2023-07-31T04:54:19;-16261.94;;;-139.71;94.42
3598;BME280;1813;52.016;8.714;2023-07-31T04:56:53;-16261.94;;;-139.71;94.30
3598;BME280;1813;52.016;8.714;2023-07-31T04:59:27;-16261.94;;;-139.71;94.11
3598;BME280;1813;52.016;8.714;2023-07-31T05:02:02;-16261.94;;;-139.71;94.07
3598;BME280;1813;52.016;8.714;2023-07-31T05:04:39;-16261.94;;;-139.71;94.14
3598;BME280;1813;52.016;8.714;2023-07-31T05:07:13;-16261.94;;;-139.71;93.95
3598;BME280;1813;52.016;8.714;2023-07-31T05:09:47;-16261.94;;;-139.71;93.77
3598;BME280;1813;52.016;8.714;2023-07-31T05:12:21;-16261.94;;;-139.71;93.69
3598;BME280;1813;52.016;8.714;2023-07-31T05:14:56;-16261.94;;;-139.71;93.42
3598;BME280;1813;52.016;8.714;2023-07-31T05:17:29;-16261.94;;;-139.71;93.37
3598;BME280;1813;52.016;8.714;2023-07-31T05:20:08;-16261.94;;;-139.71;93.12
3598;BME280;1813;52.016;8.714;2023-07-31T05:22:42;-16261.94;;;-139.71;92.97
3598;BME280;1813;52.016;8.714;2023-07-31T05:25:16;-16261.94;;;-139.71;92.71
3598;BME280;1813;52.016;8.714;2023-07-31T05:27:50;-16261.94;;;-139.71;92.24
3598;BME280;1813;52.016;8.714;2023-07-31T05:30:24;-16261.94;;;-139.71;92.03
3598;BME280;1813;52.016;8.714;2023-07-31T05:32:57;-16261.94;;;-139.71;91.84
3598;BME280;1813;52.016;8.714;2023-07-31T05:35:34;-16261.94;;;-139.71;91.57
3598;BME280;1813;52.016;8.714;2023-07-31T05:38:09;-16261.94;;;-139.71;91.33
3598;BME280;1813;52.016;8.714;2023-07-31T05:40:43;-16261.94;;;-139.71;91.21
3598;BME280;1813;52.016;8.714;2023-07-31T05:43:17;-16261.94;;;-139.71;91.17
3598;BME280;1813;52.016;8.714;2023-07-31T05:45:51;-16261.94;;;-139.71;90.86
3598;BME280;1813;52.016;8.714;2023-07-31T05:48:25;-16261.94;;;-139.71;90.75
3598;BME280;1813;52.016;8.714;2023-07-31T05:51:01;-16261.94;;;-139.71;90.59
3598;BME280;1813;52.016;8.714;2023-07-31T05:53:35;-16261.94;;;-139.71;90.15
3598;BME280;1813;52.016;8.714;2023-07-31T05:56:11;-16261.94;;;-139.71;89.77
3598;BME280;1813;52.016;8.714;2023-07-31T05:58:45;-16261.94;;;-139.71;89.71
3598;BME280;1813;52.016;8.714;2023-07-31T06:01:20;-16261.94;;;-139.71;89.51
3598;BME280;1813;52.016;8.714;2023-07-31T06:03:54;-16261.94;;;-139.71;89.36
3598;BME280;1813;52.016;8.714;2023-07-31T06:06:31;-16261.94;;;-139.71;89.30
3598;BME280;1813;52.016;8.714;2023-07-31T06:09:05;-16261.94;;;-139.71;89.53
3598;BME280;1813;52.016;8.714;2023-07-31T06:11:38;-16261.94;;;-139.71;89.54
3598;BME280;1813;52.016;8.714;2023-07-31T06:14:12;-16261.94;;;-139.71;89.74
3598;BME280;1813;52.016;8.714;2023-07-31T06:16:46;-16261.94;;;-139.71;89.79
3598;BME280;1813;52.016;8.714;2023-07-31T06:19:20;-16261.94;;;-139.71;90.03
3598;BME280;1813;52.016;8.714;2023-07-31T06:21:57;-16261.94;;;-139.71;90.03
3598;BME280;1813;52.016;8.714;2023-07-31T06:24:31;-16261.94;;;-139.71;89.87
3598;BME280;1813;52.016;8.714;2023-07-31T06:27:06;-16261.94;;;-139.71;89.99
3598;BME280;1813;52.016;8.714;2023-07-31T06:29:40;-16261.94;;;-139.71;89.73
3598;BME280;1813;52.016;8.714;2023-07-31T06:32:14;-16261.94;;;-139.71;89.51
3598;BME280;1813;52.016;8.714;2023-07-31T06:34:49;-16261.94;;;-139.71;89.63
3598;BME280;1813;52.016;8.714;2023-07-31T06:37:26;-16261.94;;;-139.71;89.45
3598;BME280;1813;52.016;8.714;2023-07-31T06:40:00;-16261.94;;;-139.71;89.25
3598;BME280;1813;52.016;8.714;2023-07-31T06:42:36;-16261.94;;;-139.71;88.98
3598;BME280;1813;52.016;8.714;2023-07-31T06:45:10;-16261.94;;;-139.71;88.67
3598;BME280;1813;52.016;8.714;2023-07-31T06:47:44;-16261.94;;;-139.71;88.55
3598;BME280;1813;52.016;8.714;2023-07-31T06:50:19;-16261.94;;;-139.71;88.42
3598;BME280;1813;52.016;8.714;2023-07-31T06:52:56;-16261.94;;;-139.71;88.08
3598;BME280;1813;52.016;8.714;2023-07-31T06:55:31;-16261.94;;;-139.71;88.13
3598;BME280;1813;52.016;8.714;2023-07-31T06:58:04;-16261.94;;;-139.71;87.88
3598;BME280;1813;52.016;8.714;2023-07-31T07:00:38;-16261.94;;;-139.71;87.85
3598;BME280;1813;52.016;8.714;2023-07-31T07:03:12;-16261.94;;;-139.71;87.99
3598;BME280;1813;52.016;8.714;2023-07-31T07:05:47;-16261.94;;;-139.71;88.45
3598;BME280;1813;52.016;8.714;2023-07-31T07:08:24;-16261.94;;;-139.71;88.60
3598;BME280;1813;52.016;8.714;2023-07-31T07:10:58;-16261.94;;;-139.71;88.90
3598;BME280;1813;52.016;8.714;2023-07-31T07:13:32;-16261.94;;;-139.71;89.16
3598;BME280;1813;52.016;8.714;2023-07-31T07:16:06;-16261.94;;;-139.71;89.36
3598;BME280;1813;52.016;8.714;2023-07-31T07:18:41;-16261.94;;;-139.71;89.27
3598;BME280;1813;52.016;8.714;2023-07-31T07:21:15;-16261.94;;;-139.71;89.56
3598;BME280;1813;52.016;8.714;2023-07-31T07:23:52;-16261.94;;;-139.71;89.61
3598;BME280;1813;52.016;8.714;2023-07-31T07:26:25;-16261.94;;;-139.71;89.35
3598;BME280;1813;52.016;8.714;2023-07-31T07:28:59;-16261.94;;;-139.71;89.48
3598;BME280;1813;52.016;8.714;2023-07-31T07:31:37;-16261.94;;;-139.71;89.86
3598;BME280;1813;52.016;8.714;2023-07-31T07:34:10;-16261.94;;;-139.71;90.26
3598;BME280;1813;52.016;8.714;2023-07-31T07:36:46;-16261.94;;;-139.71;90.61
3598;BME280;1813;52.016;8.714;2023-07-31T07:39:22;-16261.94;;;-139.71;90.88
3598;BME280;1813;52.016;8.714;2023-07-31T07:41:56;-16261.94;;;-139.71;91.05
3598;BME280;1813;52.016;8.714;2023-07-31T07:44:30;-16261.94;;;-139.71;91.30
3598;BME280;1813;52.016;8.714;2023-07-31T07:47:04;-16261.94;;;-139.71;91.25
3598;BME280;1813;52.016;8.714;2023-07-31T07:49:39;-16261.94;;;-139.71;91.01
3598;BME280;1813;52.016;8.714;2023-07-31T07:52:13;-16261.94;;;-139.71;91.41
3598;BME280;1813;52.016;8.714;2023-07-31T07:54:50;-16261.94;;;-139.71;91.22
3598;BME280;1813;52.016;8.714;2023-07-31T07:57:23;-16261.94;;;-139.71;91.39
3598;BME280;1813;52.016;8.714;2023-07-31T07:59:57;-16261.94;;;-139.71;91.67
3598;BME280;1813;52.016;8.714;2023-07-31T08:02:31;-16261.94;;;-139.71;92.04
3598;BME280;1813;52.016;8.714;2023-07-31T08:05:06;-16261.94;;;-139.71;92.01
3598;BME280;1813;52.016;8.714;2023-07-31T08:07:40;-16261.94;;;-139.71;92.54
3598;BME280;1813;52.016;8.714;2023-07-31T08:10:19;-16261.94;;;-139.71;92.35
3598;BME280;1813;52.016;8.714;2023-07-31T08:12:53;-16261.94;;;-139.71;92.78
3598;BME280;1813;52.016;8.714;2023-07-31T08:15:27;-16261.94;;;-139.71;92.88
3598;BME280;1813;52.016;8.714;2023-07-31T08:18:01;-16261.94;;;-139.71;92.78
3598;BME280;1813;52.016;8.714;2023-07-31T08:20:35;-16261.94;;;-139.71;93.01
3598;BME280;1813;52.016;8.714;2023-07-31T08:23:09;-16261.94;;;-139.71;93.01
3598;BME280;1813;52.016;8.714;2023-07-31T08:25:46;-16261.94;;;-139.71;93.35
3598;BME280;1813;52.016;8.714;2023-07-31T08:28:21;-16261.94;;;-139.71;93.36
3598;BME280;1813;52.016;8.714;2023-07-31T08:30:55;-16261.94;;;-139.71;93.47
3598;BME280;1813;52.016;8.714;2023-07-31T08:33:28;-16261.94;;;-139.71;93.62
3598;BME280;1813;52.016;8.714;2023-07-31T08:36:03;-16261.94;;;-139.71;93.95
3598;BME280;1813;52.016;8.714;2023-07-31T08:38:37;-16261.94;;;-139.71;94.30
3598;BME280;1813;52.016;8.714;2023-07-31T08:41:13;-16261.94;;;-139.71;94.28
3598;BME280;1813;52.016;8.714;2023-07-31T08:43:50;-16261.94;;;-139.71;94.74
3598;BME280;1813;52.016;8.714;2023-07-31T08:46:25;-16261.94;;;-139.71;94.75
3598;BME280;1813;52.016;8.714;2023-07-31T08:49:00;-16261.94;;;-139.71;94.71
3598;BME280;1813;52.016;8.714;2023-07-31T08:51:38;-16261.94;;;-139.71;94.60
3598;BME280;1813;52.016;8.714;2023-07-31T08:54:12;-16261.94;;;-139.71;94.67
3598;BME280;1813;52.016;8.714;2023-07-31T08:56:49;-16261.94;;;-139.71;94.60
3598;BME280;1813;52.016;8.714;2023-07-31T08:59:24;-16261.94;;;-139.71;94.61
3598;BME280;1813;52.016;8.714;2023-07-31T09:02:01;-16261.94;;;-139.71;94.32
3598;BME280;1813;52.016;8.714;2023-07-31T09:04:37;-16261.94;;;-139.71;93.93
3598;BME280;1813;52.016;8.714;2023-07-31T09:07:12;-16261.94;;;-139.71;94.20
3598;BME280;1813;52.016;8.714;2023-07-31T09:09:49;-16261.94;;;-139.71;94.73
3598;BME280;1813;52.016;8.714;2023-07-31T09:12:26;-16261.94;;;-139.71;93.95
3598;BME280;1813;52.016;8.714;2023-07-31T09:15:00;-16261.94;;;-139.71;93.52
3598;BME280;1813;52.016;8.714;2023-07-31T09:17:36;-16261.94;;;-139.71;92.84
3598;BME280;1813;52.016;8.714;2023-07-31T09:20:15;-16261.94;;;-139.71;92.89
3598;BME280;1813;52.016;8.714;2023-07-31T09:22:48;-16261.94;;;-139.71;92.88
3598;BME280;1813;52.016;8.714;2023-07-31T09:25:23;-16261.94;;;-139.71;92.61
3598;BME280;1813;52.016;8.714;2023-07-31T09:28:03;-16261.94;;;-139.71;92.59
3598;BME280;1813;52.016;8.714;2023-07-31T09:30:55;-16261.94;;;-139.71;92.68
3598;BME280;1813;52.016;8.714;2023-07-31T09:33:29;-16261.94;;;-139.71;93.13
3598;BME280;1813;52.016;8.714;2023-07-31T09:36:04;-16261.94;;;-139.71;93.54
3598;BME280;1813;52.016;8.714;2023-07-31T09:38:38;-16261.94;;;-139.71;93.29
3598;BME280;1813;52.016;8.714;2023-07-31T09:41:13;-16261.94;;;-139.71;92.95
3598;BME280;1813;52.016;8.714;2023-07-31T09:43:56;-16261.94;;;-139.71;92.18
3598;BME280;1813;52.016;8.714;2023-07-31T09:46:30;-16261.94;;;-139.71;91.80
3598;BME280;1813;52.016;8.714;2023-07-31T09:49:05;-16261.94;;;-139.71;91.85
3598;BME280;1813;52.016;8.714;2023-07-31T09:51:40;-16261.94;;;-139.71;91.95
3598;BME280;1813;52.016;8.714;2023-07-31T09:54:16;-16261.94;;;-139.71;91.77
3598;BME280;1813;52.016;8.714;2023-07-31T09:56:50;-16261.94;;;-139.71;92.13
3598;BME280;1813;52.016;8.714;2023-07-31T09:59:27;-16261.94;;;-139.71;91.94
3598;BME280;1813;52.016;8.714;2023-07-31T10:02:01;-16261.94;;;-139.71;91.57
3598;BME280;1813;52.016;8.714;2023-07-31T10:04:35;-16261.94;;;-139.71;90.87
3598;BME280;1813;52.016;8.714;2023-07-31T10:07:10;-16261.94;;;-139.71;90.37
3598;BME280;1813;52.016;8.714;2023-07-31T10:09:46;-16261.94;;;-139.71;90.77
3598;BME280;1813;52.016;8.714;2023-07-31T10:12:22;-16261.94;;;-139.71;91.78
3598;BME280;1813;52.016;8.714;2023-07-31T10:15:02;-16261.94;;;-139.71;91.98
3598;BME280;1813;52.016;8.714;2023-07-31T10:17:37;-16261.94;;;-139.71;92.31
3598;BME280;1813;52.016;8.714;2023-07-31T10:20:12;-16261.94;;;-139.71;92.59
3598;BME280;1813;52.016;8.714;2023-07-31T10:22:47;-16261.94;;;-139.71;92.57
3598;BME280;1813;52.016;8.714;2023-07-31T10:25:22;-16261.94;;;-139.71;92.26
3598;BME280;1813;52.016;8.714;2023-07-31T10:27:57;-16261.94;;;-139.71;91.91
3598;BME280;1813;52.016;8.714;2023-07-31T10:30:35;-16261.94;;;-139.71;91.95
3598;BME280;1813;52.016;8.714;2023-07-31T10:33:10;-16261.94;;;-139.71;92.68
3598;BME280;1813;52.016;8.714;2023-07-31T10:35:44;-16261.94;;;-139.71;92.86
3598;BME280;1813;52.016;8.714;2023-07-31T10:38:18;-16261.94;;;-139.71;92.81
3598;BME280;1813;52.016;8.714;2023-07-31T10:40:52;-16261.94;;;-139.71;92.76
3598;BME280;1813;52.016;8.714;2023-07-31T10:43:40;-16261.94;;;-139.71;92.94
3598;BME280;1813;52.016;8.714;2023-07-31T10:46:17;-16261.94;;;-139.71;92.66
3598;BME280;1813;52.016;8.714;2023-07-31T10:48:57;-16261.94;;;-139.71;92.49
3598;BME280;1813;52.016;8.714;2023-07-31T10:51:33;-16261.94;;;-139.71;92.38
3598;BME280;1813;52.016;8.714;2023-07-31T10:54:12;-16261.94;;;-139.71;92.35
3598;BME280;1813;52.016;8.714;2023-07-31T10:56:46;-16261.94;;;-139.71;92.52
3598;BME280;1813;52.016;8.714;2023-07-31T10:59:26;-16261.94;;;-139.71;92.81
3598;BME280;1813;52.016;8.714;2023-07-31T11:02:03;-16261.94;;;-139.71;92.48
3598;BME280;1813;52.016;8.714;2023-07-31T11:04:37;-16261.94;;;-139.71;92.31
3598;BME280;1813;52.016;8.714;2023-07-31T11:07:11;-16261.94;;;-139.71;92.36
3598;BME280;1813;52.016;8.714;2023-07-31T11:09:47;-16261.94;;;-139.71;92.74
3598;BME280;1813;52.016;8.714;2023-07-31T11:12:21;-16261.94;;;-139.71;92.38
3598;BME280;1813;52.016;8.714;2023-07-31T11:14:57;-16261.94;;;-139.71;92.86
3598;BME280;1813;52.016;8.714;2023-07-31T11:17:33;-16261.94;;;-139.71;93.01
3598;BME280;1813;52.016;8.714;2023-07-31T11:20:08;-16261.94;;;-139.71;93.39
3598;BME280;1813;52.016;8.714;2023-07-31T11:22:43;-16261.94;;;-139.71;93.42
3598;BME280;1813;52.016;8.714;2023-07-31T11:25:18;-16261.94;;;-139.71;93.17
3598;BME280;1813;52.016;8.714;2023-07-31T11:27:52;-16261.94;;;-139.71;92.97
3598;BME280;1813;52.016;8.714;2023-07-31T11:30:27;-16261.94;;;-139.71;93.32
3598;BME280;1813;52.016;8.714;2023-07-31T11:33:05;-16261.94;;;-139.71;93.28
3598;BME280;1813;52.016;8.714;2023-07-31T11:35:42;-16261.94;;;-139.71;93.21
3598;BME280;1813;52.016;8.714;2023-07-31T11:38:21;-16261.94;;;-139.71;93.28
3598;BME280;1813;52.016;8.714;2023-07-31T11:40:57;-16261.94;;;-139.71;93.38
3598;BME280;1813;52.016;8.714;2023-07-31T11:43:32;-16261.94;;;-139.71;93.79
3598;BME280;1813;52.016;8.714;2023-07-31T11:46:07;-16261.94;;;-139.71;93.59
3598;BME280;1813;52.016;8.714;2023-07-31T11:48:44;-16261.94;;;-139.71;93.68
3598;BME280;1813;52.016;8.714;2023-07-31T11:51:20;-16261.94;;;-139.71;93.98
3598;BME280;1813;52.016;8.714;2023-07-31T11:53:57;-16261.94;;;-139.71;94.03
3598;BME280;1813;52.016;8.714;2023-07-31T11:56:32;-16261.94;;;-139.71;93.81
3598;BME280;1813;52.016;8.714;2023-07-31T11:59:06;-16261.94;;;-139.71;94.28
3598;BME280;1813;52.016;8.714;2023-07-31T12:01:40;-16261.94;;;-139.71;94.45
3598;BME280;1813;52.016;8.714;2023-07-31T12:04:17;-16261.94;;;-139.71;94.31
3598;BME280;1813;52.016;8.714;2023-07-31T12:06:53;-16261.94;;;-139.71;93.75
3598;BME280;1813;52.016;8.714;2023-07-31T12:09:27;-16261.94;;;-139.71;92.93
3598;BME280;1813;52.016;8.714;2023-07-31T12:12:01;-16261.94;;;-139.71;92.15
3598;BME280;1813;52.016;8.714;2023-07-31T12:14:41;-16261.94;;;-139.71;92.07
3598;BME280;1813;52.016;8.714;2023-07-31T12:17:16;-16261.94;;;-139.71;91.30
3598;BME280;1813;52.016;8.714;2023-07-31T12:19:54;-16261.94;;;-139.71;91.12
3598;BME280;1813;52.016;8.714;2023-07-31T12:22:28;-16261.94;;;-139.71;91.10
3598;BME280;1813;52.016;8.714;2023-07-31T12:25:02;-16261.94;;;-139.71;91.23
3598;BME280;1813;52.016;8.714;2023-07-31T12:27:36;-16261.94;;;-139.71;91.66
3598;BME280;1813;52.016;8.714;2023-07-31T12:30:28;-16261.94;;;-139.71;91.95
3598;BME280;1813;52.016;8.714;2023-07-31T12:33:06;-16261.94;;;-139.71;92.03
3598;BME280;1813;52.016;8.714;2023-07-31T12:35:58;-16261.94;;;-139.71;92.14
3598;BME280;1813;52.016;8.714;2023-07-31T12:38:33;-16261.94;;;-139.71;92.17
3598;BME280;1813;52.016;8.714;2023-07-31T12:41:07;-16261.94;;;-139.71;92.17
3598;BME280;1813;52.016;8.714;2023-07-31T12:43:42;-16261.94;;;-139.71;92.03
3598;BME280;1813;52.016;8.714;2023-07-31T12:46:16;-16261.94;;;-139.71;92.01
3598;BME280;1813;52.016;8.714;2023-07-31T12:48:50;-16261.94;;;-139.71;92.25
3598;BME280;1813;52.016;8.714;2023-07-31T12:51:27;-16261.94;;;-139.71;91.73
3598;BME280;1813;52.016;8.714;2023-07-31T12:54:01;-16261.94;;;-139.71;91.49
3598;BME280;1813;52.016;8.714;2023-07-31T12:56:35;-16261.94;;;-139.71;91.83
3598;BME280;1813;52.016;8.714;2023-07-31T12:59:09;-16261.94;;;-139.71;91.87
3598;BME280;1813;52.016;8.714;2023-07-31T13:01:43;-16261.94;;;-139.71;92.04
3598;BME280;1813;52.016;8.714;2023-07-31T13:04:17;-16261.94;;;-139.71;92.05
3598;BME280;1813;52.016;8.714;2023-07-31T13:06:54;-16261.94;;;-139.71;92.41
3598;BME280;1813;52.016;8.714;2023-07-31T13:09:28;-16261.94;;;-139.71;92.74
3598;BME280;1813;52.016;8.714;2023-07-31T13:12:03;-16261.94;;;-139.71;92.82
3598;BME280;1813;52.016;8.714;2023-07-31T13:14:37;-16261.94;;;-139.71;92.99
3598;BME280;1813;52.016;8.714;2023-07-31T13:17:11;-16261.94;;;-139.71;92.99
3598;BME280;1813;52.016;8.714;2023-07-31T13:19:45;-16261.94;;;-139.71;93.13
3598;BME280;1813;52.016;8.714;2023-07-31T13:22:21;-16261.94;;;-139.71;93.59
3598;BME280;1813;52.016;8.714;2023-07-31T13:24:55;-16261.94;;;-139.71;94.00
3598;BME280;1813;52.016;8.714;2023-07-31T13:27:29;-16261.94;;;-139.71;94.40
3598;BME280;1813;52.016;8.714;2023-07-31T13:30:04;-16261.94;;;-139.71;94.43
3598;BME280;1813;52.016;8.714;2023-07-31T13:32:39;-16261.94;;;-139.71;93.95